sensor_id;sensor_type;location;lat;lon;timestamp;temperature;humidity
78297;DHT22;67555;47.660;19.622;2023-12-28T00:00:42;6.30;71.00
78297;DHT22;67555;47.660;19.622;2023-12-28T00:03:08;6.30;70.90
78297;DHT22;67555;47.660;19.622;2023-12-28T00:05:34;6.20;71.00
78297;DHT22;67555;47.660;19.622;2023-12-28T00:07:59;6.20;70.90
78297;DHT22;67555;47.660;19.622;2023-12-28T00:10:26;6.20;70.90
78297;DHT22;67555;47.660;19.622;2023-12-28T00:12:53;6.20;70.90
78297;DHT22;67555;47.660;19.622;2023-12-28T00:15:19;6.20;70.90
78297;DHT22;67555;47.660;19.622;2023-12-28T00:17:45;6.10;70.90
78297;DHT22;67555;47.660;19.622;2023-12-28T00:20:12;6.10;71.00
78297;DHT22;67555;47.660;19.622;2023-12-28T00:22:37;6.10;71.00
78297;DHT22;67555;47.660;19.622;2023-12-28T00:25:04;6.00;70.90
78297;DHT22;67555;47.660;19.622;2023-12-28T00:27:32;6.00;70.90
78297;DHT22;67555;47.660;19.622;2023-12-28T00:30:04;6.00;71.00
78297;DHT22;67555;47.660;19.622;2023-12-28T00:32:30;6.00;71.00
78297;DHT22;67555;47.660;19.622;2023-12-28T00:34:56;6.00;71.00
78297;DHT22;67555;47.660;19.622;2023-12-28T00:37:21;6.00;71.00
78297;DHT22;67555;47.660;19.622;2023-12-28T00:39:47;6.00;71.00
78297;DHT22;67555;47.660;19.622;2023-12-28T00:42:15;5.90;71.10
78297;DHT22;67555;47.660;19.622;2023-12-28T00:44:41;6.00;71.10
78297;DHT22;67555;47.660;19.622;2023-12-28T00:47:08;5.90;71.10
78297;DHT22;67555;47.660;19.622;2023-12-28T00:49:34;5.90;71.10
78297;DHT22;67555;47.660;19.622;2023-12-28T00:51:59;5.90;71.20
78297;DHT22;67555;47.660;19.622;2023-12-28T00:54:25;5.90;71.20
78297;DHT22;67555;47.660;19.622;2023-12-28T00:56:51;6.00;71.20
78297;DHT22;67555;47.660;19.622;2023-12-28T00:59:16;5.90;71.10
78297;DHT22;67555;47.660;19.622;2023-12-28T01:01:42;5.90;71.10
78297;DHT22;67555;47.660;19.622;2023-12-28T01:04:09;5.90;71.20
78297;DHT22;67555;47.660;19.622;2023-12-28T01:06:34;5.80;71.20
78297;DHT22;67555;47.660;19.622;2023-12-28T01:09:00;5.80;71.40
78297;DHT22;67555;47.660;19.622;2023-12-28T01:11:26;5.80;71.30
78297;DHT22;67555;47.660;19.622;2023-12-28T01:13:53;5.70;71.30
78297;DHT22;67555;47.660;19.622;2023-12-28T01:16:18;5.60;71.50
78297;DHT22;67555;47.660;19.622;2023-12-28T01:18:44;5.50;71.60
78297;DHT22;67555;47.660;19.622;2023-12-28T01:21:10;5.30;71.80
78297;DHT22;67555;47.660;19.622;2023-12-28T01:23:36;5.30;71.90
78297;DHT22;67555;47.660;19.622;2023-12-28T01:26:01;5.30;71.90
78297;DHT22;67555;47.660;19.622;2023-12-28T01:28:27;5.10;71.80
78297;DHT22;67555;47.660;19.622;2023-12-28T01:30:53;5.00;72.00
78297;DHT22;67555;47.660;19.622;2023-12-28T01:33:19;4.70;72.40
78297;DHT22;67555;47.660;19.622;2023-12-28T01:35:45;4.70;72.80
78297;DHT22;67555;47.660;19.622;2023-12-28T01:38:10;4.60;73.00
78297;DHT22;67555;47.660;19.622;2023-12-28T01:40:36;4.50;73.20
78297;DHT22;67555;47.660;19.622;2023-12-28T01:43:02;4.60;73.20
78297;DHT22;67555;47.660;19.622;2023-12-28T01:45:28;4.70;73.00
78297;DHT22;67555;47.660;19.622;2023-12-28T01:47:57;4.60;73.10
78297;DHT22;67555;47.660;19.622;2023-12-28T01:50:23;4.50;73.40
78297;DHT22;67555;47.660;19.622;2023-12-28T01:52:51;4.40;73.60
78297;DHT22;67555;47.660;19.622;2023-12-28T01:55:17;4.30;73.90
78297;DHT22;67555;47.660;19.622;2023-12-28T01:57:44;4.30;74.00
78297;DHT22;67555;47.660;19.622;2023-12-28T02:00:11;4.30;74.20
78297;DHT22;67555;47.660;19.622;2023-12-28T02:02:37;4.30;74.10
78297;DHT22;67555;47.660;19.622;2023-12-28T02:05:03;4.20;74.30
78297;DHT22;67555;47.660;19.622;2023-12-28T02:07:29;4.20;74.20
78297;DHT22;67555;47.660;19.622;2023-12-28T02:09:55;4.30;74.20
78297;DHT22;67555;47.660;19.622;2023-12-28T02:12:21;4.30;74.00
78297;DHT22;67555;47.660;19.622;2023-12-28T02:14:47;4.40;73.80
78297;DHT22;67555;47.660;19.622;2023-12-28T02:19:51;4.50;73.40
78297;DHT22;67555;47.660;19.622;2023-12-28T02:22:18;4.50;73.20
78297;DHT22;67555;47.660;19.622;2023-12-28T02:27:28;4.70;73.10
78297;DHT22;67555;47.660;19.622;2023-12-28T02:29:55;4.70;73.00
78297;DHT22;67555;47.660;19.622;2023-12-28T02:32:25;4.70;73.00
78297;DHT22;67555;47.660;19.622;2023-12-28T02:34:57;4.70;73.20
78297;DHT22;67555;47.660;19.622;2023-12-28T02:37:25;4.70;73.20
78297;DHT22;67555;47.660;19.622;2023-12-28T02:39:52;4.70;73.30
78297;DHT22;67555;47.660;19.622;2023-12-28T02:42:19;4.90;73.10
78297;DHT22;67555;47.660;19.622;2023-12-28T02:44:44;4.90;73.00
78297;DHT22;67555;47.660;19.622;2023-12-28T02:47:10;4.90;73.00
78297;DHT22;67555;47.660;19.622;2023-12-28T02:49:36;4.90;72.90
78297;DHT22;67555;47.660;19.622;2023-12-28T02:52:02;4.80;73.00
78297;DHT22;67555;47.660;19.622;2023-12-28T02:54:28;4.70;73.10
78297;DHT22;67555;47.660;19.622;2023-12-28T02:56:54;4.70;73.20
78297;DHT22;67555;47.660;19.622;2023-12-28T02:59:19;4.70;73.40
78297;DHT22;67555;47.660;19.622;2023-12-28T03:01:45;4.70;73.20
78297;DHT22;67555;47.660;19.622;2023-12-28T03:04:11;4.70;73.20
78297;DHT22;67555;47.660;19.622;2023-12-28T03:06:36;4.70;73.10
78297;DHT22;67555;47.660;19.622;2023-12-28T03:09:03;4.70;73.00
78297;DHT22;67555;47.660;19.622;2023-12-28T03:11:30;4.60;73.00
78297;DHT22;67555;47.660;19.622;2023-12-28T03:13:56;4.50;73.00
78297;DHT22;67555;47.660;19.622;2023-12-28T03:16:21;4.40;73.10
78297;DHT22;67555;47.660;19.622;2023-12-28T03:18:47;4.30;73.30
78297;DHT22;67555;47.660;19.622;2023-12-28T03:21:13;4.10;73.60
78297;DHT22;67555;47.660;19.622;2023-12-28T03:23:38;4.00;74.10
78297;DHT22;67555;47.660;19.622;2023-12-28T03:26:04;3.90;74.30
78297;DHT22;67555;47.660;19.622;2023-12-28T03:28:30;4.00;74.30
78297;DHT22;67555;47.660;19.622;2023-12-28T03:30:55;4.10;73.90
78297;DHT22;67555;47.660;19.622;2023-12-28T03:33:22;4.00;73.90
78297;DHT22;67555;47.660;19.622;2023-12-28T03:35:48;4.10;73.70
78297;DHT22;67555;47.660;19.622;2023-12-28T03:38:13;4.00;73.60
78297;DHT22;67555;47.660;19.622;2023-12-28T03:40:40;3.90;73.70
78297;DHT22;67555;47.660;19.622;2023-12-28T03:43:06;3.90;74.00
78297;DHT22;67555;47.660;19.622;2023-12-28T03:45:32;3.90;74.20
78297;DHT22;67555;47.660;19.622;2023-12-28T03:47:57;3.90;74.00
78297;DHT22;67555;47.660;19.622;2023-12-28T03:50:23;3.90;74.00
78297;DHT22;67555;47.660;19.622;2023-12-28T03:52:49;3.80;74.00
78297;DHT22;67555;47.660;19.622;2023-12-28T03:55:15;3.70;74.00
78297;DHT22;67555;47.660;19.622;2023-12-28T03:57:41;3.60;74.30
78297;DHT22;67555;47.660;19.622;2023-12-28T04:00:08;3.60;74.60
78297;DHT22;67555;47.660;19.622;2023-12-28T04:02:34;3.50;74.70
78297;DHT22;67555;47.660;19.622;2023-12-28T04:04:59;3.60;74.70
78297;DHT22;67555;47.660;19.622;2023-12-28T04:07:25;3.50;74.80
78297;DHT22;67555;47.660;19.622;2023-12-28T04:09:51;3.50;75.00
78297;DHT22;67555;47.660;19.622;2023-12-28T04:12:16;3.50;75.00
78297;DHT22;67555;47.660;19.622;2023-12-28T04:14:42;3.50;75.10
78297;DHT22;67555;47.660;19.622;2023-12-28T04:17:08;3.50;75.00
78297;DHT22;67555;47.660;19.622;2023-12-28T04:19:33;3.50;74.90
78297;DHT22;67555;47.660;19.622;2023-12-28T04:21:59;3.50;74.80
78297;DHT22;67555;47.660;19.622;2023-12-28T04:24:25;3.50;74.70
78297;DHT22;67555;47.660;19.622;2023-12-28T04:26:50;3.50;74.70
78297;DHT22;67555;47.660;19.622;2023-12-28T04:29:16;3.60;74.70
78297;DHT22;67555;47.660;19.622;2023-12-28T04:31:43;3.60;74.50
78297;DHT22;67555;47.660;19.622;2023-12-28T04:34:08;3.60;74.40
78297;DHT22;67555;47.660;19.622;2023-12-28T04:36:42;3.70;74.30
78297;DHT22;67555;47.660;19.622;2023-12-28T04:39:09;3.80;74.20
78297;DHT22;67555;47.660;19.622;2023-12-28T04:41:34;3.90;74.20
78297;DHT22;67555;47.660;19.622;2023-12-28T04:44:00;3.90;74.20
78297;DHT22;67555;47.660;19.622;2023-12-28T04:46:26;3.90;74.10
78297;DHT22;67555;47.660;19.622;2023-12-28T04:48:51;4.00;74.10
78297;DHT22;67555;47.660;19.622;2023-12-28T04:51:17;4.00;74.10
78297;DHT22;67555;47.660;19.622;2023-12-28T04:53:43;4.10;74.20
78297;DHT22;67555;47.660;19.622;2023-12-28T04:56:09;4.10;74.20
78297;DHT22;67555;47.660;19.622;2023-12-28T04:58:35;4.20;74.20
78297;DHT22;67555;47.660;19.622;2023-12-28T05:01:03;4.30;74.20
78297;DHT22;67555;47.660;19.622;2023-12-28T05:03:29;4.30;74.20
78297;DHT22;67555;47.660;19.622;2023-12-28T05:05:55;4.30;74.20
78297;DHT22;67555;47.660;19.622;2023-12-28T05:08:20;4.30;74.20
78297;DHT22;67555;47.660;19.622;2023-12-28T05:10:47;4.30;74.20
78297;DHT22;67555;47.660;19.622;2023-12-28T05:13:13;4.30;74.30
78297;DHT22;67555;47.660;19.622;2023-12-28T05:15:38;4.30;74.40
78297;DHT22;67555;47.660;19.622;2023-12-28T05:18:04;4.40;74.40
78297;DHT22;67555;47.660;19.622;2023-12-28T05:20:32;4.40;74.40
78297;DHT22;67555;47.660;19.622;2023-12-28T05:22:57;4.40;74.50
78297;DHT22;67555;47.660;19.622;2023-12-28T05:25:23;4.40;74.50
78297;DHT22;67555;47.660;19.622;2023-12-28T05:27:49;4.40;74.60
78297;DHT22;67555;47.660;19.622;2023-12-28T05:30:15;4.40;74.60
78297;DHT22;67555;47.660;19.622;2023-12-28T05:32:40;4.40;74.70
78297;DHT22;67555;47.660;19.622;2023-12-28T05:35:06;4.50;74.70
78297;DHT22;67555;47.660;19.622;2023-12-28T05:37:32;4.50;74.70
78297;DHT22;67555;47.660;19.622;2023-12-28T05:39:58;4.50;74.70
78297;DHT22;67555;47.660;19.622;2023-12-28T05:42:24;4.50;74.60
78297;DHT22;67555;47.660;19.622;2023-12-28T05:44:49;4.50;74.60
78297;DHT22;67555;47.660;19.622;2023-12-28T05:47:15;4.50;74.60
78297;DHT22;67555;47.660;19.622;2023-12-28T05:49:41;4.50;74.70
78297;DHT22;67555;47.660;19.622;2023-12-28T05:52:07;4.50;74.70
78297;DHT22;67555;47.660;19.622;2023-12-28T05:54:33;4.50;74.80
78297;DHT22;67555;47.660;19.622;2023-12-28T05:57:00;4.50;74.80
78297;DHT22;67555;47.660;19.622;2023-12-28T05:59:25;4.50;74.80
78297;DHT22;67555;47.660;19.622;2023-12-28T06:01:51;4.40;74.80
78297;DHT22;67555;47.660;19.622;2023-12-28T06:04:17;4.40;74.80
78297;DHT22;67555;47.660;19.622;2023-12-28T06:06:43;4.40;74.90
78297;DHT22;67555;47.660;19.622;2023-12-28T06:09:09;4.40;74.90
78297;DHT22;67555;47.660;19.622;2023-12-28T06:11:34;4.30;74.80
78297;DHT22;67555;47.660;19.622;2023-12-28T06:14:00;4.30;74.80
78297;DHT22;67555;47.660;19.622;2023-12-28T06:16:27;4.30;74.80
78297;DHT22;67555;47.660;19.622;2023-12-28T06:18:53;4.20;74.80
78297;DHT22;67555;47.660;19.622;2023-12-28T06:21:18;4.20;74.80
78297;DHT22;67555;47.660;19.622;2023-12-28T06:23:44;4.20;74.80
78297;DHT22;67555;47.660;19.622;2023-12-28T06:26:10;4.20;74.80
78297;DHT22;67555;47.660;19.622;2023-12-28T06:28:35;4.20;74.80
78297;DHT22;67555;47.660;19.622;2023-12-28T06:31:01;4.20;74.90
78297;DHT22;67555;47.660;19.622;2023-12-28T06:33:29;4.20;74.90
78297;DHT22;67555;47.660;19.622;2023-12-28T06:35:55;4.20;75.00
78297;DHT22;67555;47.660;19.622;2023-12-28T06:38:23;4.20;75.00
78297;DHT22;67555;47.660;19.622;2023-12-28T06:40:50;4.20;75.00
78297;DHT22;67555;47.660;19.622;2023-12-28T06:43:16;4.10;75.00
78297;DHT22;67555;47.660;19.622;2023-12-28T06:45:42;4.20;75.10
78297;DHT22;67555;47.660;19.622;2023-12-28T06:48:08;4.20;75.20
78297;DHT22;67555;47.660;19.622;2023-12-28T06:50:33;4.10;75.10
78297;DHT22;67555;47.660;19.622;2023-12-28T06:52:59;4.20;75.20
78297;DHT22;67555;47.660;19.622;2023-12-28T06:55:25;4.20;75.20
78297;DHT22;67555;47.660;19.622;2023-12-28T06:57:50;4.20;75.30
78297;DHT22;67555;47.660;19.622;2023-12-28T07:00:16;4.20;75.30
78297;DHT22;67555;47.660;19.622;2023-12-28T07:02:42;4.20;75.30
78297;DHT22;67555;47.660;19.622;2023-12-28T07:05:08;4.20;75.30
78297;DHT22;67555;47.660;19.622;2023-12-28T07:07:33;4.20;75.30
78297;DHT22;67555;47.660;19.622;2023-12-28T07:09:59;4.20;75.40
78297;DHT22;67555;47.660;19.622;2023-12-28T07:12:25;4.30;75.40
78297;DHT22;67555;47.660;19.622;2023-12-28T07:14:51;4.30;75.30
78297;DHT22;67555;47.660;19.622;2023-12-28T07:17:17;4.40;75.40
78297;DHT22;67555;47.660;19.622;2023-12-28T07:19:43;4.40;75.30
78297;DHT22;67555;47.660;19.622;2023-12-28T07:24:41;4.50;75.20
78297;DHT22;67555;47.660;19.622;2023-12-28T07:27:06;4.50;75.20
78297;DHT22;67555;47.660;19.622;2023-12-28T07:29:32;4.60;75.20
78297;DHT22;67555;47.660;19.622;2023-12-28T07:31:58;4.60;75.20
78297;DHT22;67555;47.660;19.622;2023-12-28T07:34:27;4.70;75.10
78297;DHT22;67555;47.660;19.622;2023-12-28T07:36:53;4.70;75.00
78297;DHT22;67555;47.660;19.622;2023-12-28T07:39:18;4.70;75.10
78297;DHT22;67555;47.660;19.622;2023-12-28T07:41:44;4.80;75.10
78297;DHT22;67555;47.660;19.622;2023-12-28T07:44:10;4.90;75.10
78297;DHT22;67555;47.660;19.622;2023-12-28T07:46:35;5.00;75.00
78297;DHT22;67555;47.660;19.622;2023-12-28T07:49:01;5.00;75.00
78297;DHT22;67555;47.660;19.622;2023-12-28T07:51:27;5.00;74.90
78297;DHT22;67555;47.660;19.622;2023-12-28T07:53:52;5.10;74.80
78297;DHT22;67555;47.660;19.622;2023-12-28T07:56:18;5.20;74.80
78297;DHT22;67555;47.660;19.622;2023-12-28T07:58:44;5.30;74.70
78297;DHT22;67555;47.660;19.622;2023-12-28T08:01:10;5.30;74.70
78297;DHT22;67555;47.660;19.622;2023-12-28T08:03:37;5.30;74.70
78297;DHT22;67555;47.660;19.622;2023-12-28T08:06:03;5.50;74.60
78297;DHT22;67555;47.660;19.622;2023-12-28T08:08:29;5.50;74.60
78297;DHT22;67555;47.660;19.622;2023-12-28T08:10:56;5.50;74.50
78297;DHT22;67555;47.660;19.622;2023-12-28T08:13:23;5.60;74.50
78297;DHT22;67555;47.660;19.622;2023-12-28T08:15:49;5.70;74.50
78297;DHT22;67555;47.660;19.622;2023-12-28T08:18:14;5.70;74.40
78297;DHT22;67555;47.660;19.622;2023-12-28T08:20:40;5.80;74.30
78297;DHT22;67555;47.660;19.622;2023-12-28T08:23:06;5.90;74.30
78297;DHT22;67555;47.660;19.622;2023-12-28T08:25:32;5.90;74.30
78297;DHT22;67555;47.660;19.622;2023-12-28T08:27:58;6.00;74.20
78297;DHT22;67555;47.660;19.622;2023-12-28T08:30:23;6.10;74.20
78297;DHT22;67555;47.660;19.622;2023-12-28T08:32:49;6.10;74.10
78297;DHT22;67555;47.660;19.622;2023-12-28T08:35:15;6.10;74.20
78297;DHT22;67555;47.660;19.622;2023-12-28T08:37:41;6.20;74.20
78297;DHT22;67555;47.660;19.622;2023-12-28T08:40:07;6.20;74.30
78297;DHT22;67555;47.660;19.622;2023-12-28T08:42:33;6.30;74.20
78297;DHT22;67555;47.660;19.622;2023-12-28T08:44:59;6.30;74.30
78297;DHT22;67555;47.660;19.622;2023-12-28T08:47:24;6.40;74.10
78297;DHT22;67555;47.660;19.622;2023-12-28T08:49:50;6.50;74.10
78297;DHT22;67555;47.660;19.622;2023-12-28T08:52:16;6.60;74.00
78297;DHT22;67555;47.660;19.622;2023-12-28T08:54:41;6.60;73.90
78297;DHT22;67555;47.660;19.622;2023-12-28T08:57:07;6.70;73.80
78297;DHT22;67555;47.660;19.622;2023-12-28T08:59:39;6.80;73.70
78297;DHT22;67555;47.660;19.622;2023-12-28T09:02:06;6.80;73.70
78297;DHT22;67555;47.660;19.622;2023-12-28T09:04:32;6.90;73.70
78297;DHT22;67555;47.660;19.622;2023-12-28T09:06:58;6.90;73.70
78297;DHT22;67555;47.660;19.622;2023-12-28T09:09:24;7.00;73.60
78297;DHT22;67555;47.660;19.622;2023-12-28T09:11:50;7.00;73.50
78297;DHT22;67555;47.660;19.622;2023-12-28T09:14:16;7.00;73.40
78297;DHT22;67555;47.660;19.622;2023-12-28T09:16:42;7.10;73.20
78297;DHT22;67555;47.660;19.622;2023-12-28T09:19:09;7.20;73.10
78297;DHT22;67555;47.660;19.622;2023-12-28T09:21:35;7.20;73.00
78297;DHT22;67555;47.660;19.622;2023-12-28T09:24:00;7.40;73.00
78297;DHT22;67555;47.660;19.622;2023-12-28T09:26:27;7.50;72.80
78297;DHT22;67555;47.660;19.622;2023-12-28T09:28:52;7.50;72.70
78297;DHT22;67555;47.660;19.622;2023-12-28T09:31:18;7.50;72.50
78297;DHT22;67555;47.660;19.622;2023-12-28T09:33:44;7.60;72.50
78297;DHT22;67555;47.660;19.622;2023-12-28T09:36:10;7.70;72.40
78297;DHT22;67555;47.660;19.622;2023-12-28T09:38:38;7.70;72.40
78297;DHT22;67555;47.660;19.622;2023-12-28T09:41:12;7.80;72.30
78297;DHT22;67555;47.660;19.622;2023-12-28T09:43:50;7.80;72.30
78297;DHT22;67555;47.660;19.622;2023-12-28T09:46:18;7.80;72.20
78297;DHT22;67555;47.660;19.622;2023-12-28T09:48:44;8.00;72.10
78297;DHT22;67555;47.660;19.622;2023-12-28T09:51:13;8.00;72.00
78297;DHT22;67555;47.660;19.622;2023-12-28T09:53:38;8.00;71.90
78297;DHT22;67555;47.660;19.622;2023-12-28T09:56:05;8.10;71.70
78297;DHT22;67555;47.660;19.622;2023-12-28T09:58:31;8.10;71.60
78297;DHT22;67555;47.660;19.622;2023-12-28T10:01:00;8.20;71.60
78297;DHT22;67555;47.660;19.622;2023-12-28T10:03:27;8.20;71.50
78297;DHT22;67555;47.660;19.622;2023-12-28T10:05:52;8.30;71.40
78297;DHT22;67555;47.660;19.622;2023-12-28T10:08:18;8.30;71.40
78297;DHT22;67555;47.660;19.622;2023-12-28T10:10:44;8.30;71.40
78297;DHT22;67555;47.660;19.622;2023-12-28T10:13:16;8.40;71.30
78297;DHT22;67555;47.660;19.622;2023-12-28T10:15:43;8.40;71.10
78297;DHT22;67555;47.660;19.622;2023-12-28T10:18:09;8.50;71.00
78297;DHT22;67555;47.660;19.622;2023-12-28T10:20:35;8.50;70.90
78297;DHT22;67555;47.660;19.622;2023-12-28T10:23:00;8.60;70.80
78297;DHT22;67555;47.660;19.622;2023-12-28T10:25:27;8.60;70.80
78297;DHT22;67555;47.660;19.622;2023-12-28T10:27:53;8.60;70.70
78297;DHT22;67555;47.660;19.622;2023-12-28T10:30:22;8.60;70.70
78297;DHT22;67555;47.660;19.622;2023-12-28T10:32:49;8.70;70.60
78297;DHT22;67555;47.660;19.622;2023-12-28T10:35:15;8.70;70.60
78297;DHT22;67555;47.660;19.622;2023-12-28T10:37:42;8.80;70.50
78297;DHT22;67555;47.660;19.622;2023-12-28T10:40:14;8.80;70.30
78297;DHT22;67555;47.660;19.622;2023-12-28T10:42:56;8.90;70.10
78297;DHT22;67555;47.660;19.622;2023-12-28T10:45:25;8.90;70.00
78297;DHT22;67555;47.660;19.622;2023-12-28T10:48:12;9.00;69.80
78297;DHT22;67555;47.660;19.622;2023-12-28T10:50:42;9.00;69.60
78297;DHT22;67555;47.660;19.622;2023-12-28T10:53:37;9.00;69.50
78297;DHT22;67555;47.660;19.622;2023-12-28T10:56:36;9.00;69.40
78297;DHT22;67555;47.660;19.622;2023-12-28T11:01:47;9.20;69.30
78297;DHT22;67555;47.660;19.622;2023-12-28T11:05:09;9.20;69.10
78297;DHT22;67555;47.660;19.622;2023-12-28T11:07:18;9.20;69.00
78297;DHT22;67555;47.660;19.622;2023-12-28T11:09:44;9.30;68.90
78297;DHT22;67555;47.660;19.622;2023-12-28T11:12:12;9.40;68.80
78297;DHT22;67555;47.660;19.622;2023-12-28T11:14:42;9.40;68.70
78297;DHT22;67555;47.660;19.622;2023-12-28T11:17:09;9.50;68.60
78297;DHT22;67555;47.660;19.622;2023-12-28T11:19:37;9.50;68.60
78297;DHT22;67555;47.660;19.622;2023-12-28T11:22:04;9.50;68.60
78297;DHT22;67555;47.660;19.622;2023-12-28T11:24:31;9.60;68.50
78297;DHT22;67555;47.660;19.622;2023-12-28T11:26:58;9.50;68.40
78297;DHT22;67555;47.660;19.622;2023-12-28T11:29:24;9.60;68.40
78297;DHT22;67555;47.660;19.622;2023-12-28T11:31:51;9.60;68.40
78297;DHT22;67555;47.660;19.622;2023-12-28T11:34:17;9.70;68.30
78297;DHT22;67555;47.660;19.622;2023-12-28T11:36:51;9.70;68.20
78297;DHT22;67555;47.660;19.622;2023-12-28T11:39:29;9.70;68.10
78297;DHT22;67555;47.660;19.622;2023-12-28T11:42:02;9.80;68.10
78297;DHT22;67555;47.660;19.622;2023-12-28T11:44:29;9.80;68.00
78297;DHT22;67555;47.660;19.622;2023-12-28T11:46:55;9.90;67.90
78297;DHT22;67555;47.660;19.622;2023-12-28T11:49:28;9.90;67.90
78297;DHT22;67555;47.660;19.622;2023-12-28T11:51:57;9.90;67.90
78297;DHT22;67555;47.660;19.622;2023-12-28T11:54:24;9.90;67.90
78297;DHT22;67555;47.660;19.622;2023-12-28T11:56:51;10.00;67.80
78297;DHT22;67555;47.660;19.622;2023-12-28T11:59:19;10.00;67.70
78297;DHT22;67555;47.660;19.622;2023-12-28T12:01:52;10.00;67.50
78297;DHT22;67555;47.660;19.622;2023-12-28T12:04:19;10.00;67.50
78297;DHT22;67555;47.660;19.622;2023-12-28T12:06:46;10.00;67.60
78297;DHT22;67555;47.660;19.622;2023-12-28T12:09:12;10.00;67.60
78297;DHT22;67555;47.660;19.622;2023-12-28T12:11:38;10.10;67.50
78297;DHT22;67555;47.660;19.622;2023-12-28T12:14:13;10.20;67.40
78297;DHT22;67555;47.660;19.622;2023-12-28T12:16:39;10.30;67.20
78297;DHT22;67555;47.660;19.622;2023-12-28T12:19:05;10.40;67.00
78297;DHT22;67555;47.660;19.622;2023-12-28T12:21:35;10.50;66.70
78297;DHT22;67555;47.660;19.622;2023-12-28T12:24:01;10.70;66.50
78297;DHT22;67555;47.660;19.622;2023-12-28T12:26:29;10.80;66.20
78297;DHT22;67555;47.660;19.622;2023-12-28T12:28:56;11.00;65.90
78297;DHT22;67555;47.660;19.622;2023-12-28T12:31:42;11.10;65.60
78297;DHT22;67555;47.660;19.622;2023-12-28T12:34:15;11.20;65.30
78297;DHT22;67555;47.660;19.622;2023-12-28T12:36:41;11.40;65.00
78297;DHT22;67555;47.660;19.622;2023-12-28T12:39:09;11.50;64.80
78297;DHT22;67555;47.660;19.622;2023-12-28T12:41:35;11.70;64.30
78297;DHT22;67555;47.660;19.622;2023-12-28T12:44:01;11.90;63.90
78297;DHT22;67555;47.660;19.622;2023-12-28T12:49:11;12.10;63.10
78297;DHT22;67555;47.660;19.622;2023-12-28T12:51:38;12.10;62.60
78297;DHT22;67555;47.660;19.622;2023-12-28T12:54:06;12.10;62.70
78297;DHT22;67555;47.660;19.622;2023-12-28T12:56:34;12.20;62.50
78297;DHT22;67555;47.660;19.622;2023-12-28T12:59:00;12.20;62.10
78297;DHT22;67555;47.660;19.622;2023-12-28T13:01:26;12.20;62.00
78297;DHT22;67555;47.660;19.622;2023-12-28T13:03:52;12.20;61.90
78297;DHT22;67555;47.660;19.622;2023-12-28T13:06:18;12.30;61.80
78297;DHT22;67555;47.660;19.622;2023-12-28T13:08:44;12.30;61.50
78297;DHT22;67555;47.660;19.622;2023-12-28T13:11:09;12.50;61.30
78297;DHT22;67555;47.660;19.622;2023-12-28T13:13:36;12.50;61.20
78297;DHT22;67555;47.660;19.622;2023-12-28T13:16:02;12.50;61.10
78297;DHT22;67555;47.660;19.622;2023-12-28T13:18:28;12.50;60.90
78297;DHT22;67555;47.660;19.622;2023-12-28T13:20:54;12.70;60.60
78297;DHT22;67555;47.660;19.622;2023-12-28T13:23:20;12.80;60.30
78297;DHT22;67555;47.660;19.622;2023-12-28T13:25:46;12.80;60.10
78297;DHT22;67555;47.660;19.622;2023-12-28T13:28:12;12.80;60.00
78297;DHT22;67555;47.660;19.622;2023-12-28T13:30:38;12.80;59.80
78297;DHT22;67555;47.660;19.622;2023-12-28T13:33:05;12.70;59.70
78297;DHT22;67555;47.660;19.622;2023-12-28T13:35:31;12.60;59.50
78297;DHT22;67555;47.660;19.622;2023-12-28T13:37:59;12.50;59.80
78297;DHT22;67555;47.660;19.622;2023-12-28T13:40:27;12.20;60.20
78297;DHT22;67555;47.660;19.622;2023-12-28T13:42:53;12.00;60.40
78297;DHT22;67555;47.660;19.622;2023-12-28T13:45:18;11.90;60.50
78297;DHT22;67555;47.660;19.622;2023-12-28T13:47:44;11.90;60.50
78297;DHT22;67555;47.660;19.622;2023-12-28T13:50:10;11.70;60.50
78297;DHT22;67555;47.660;19.622;2023-12-28T13:52:36;11.70;60.70
78297;DHT22;67555;47.660;19.622;2023-12-28T13:55:01;11.50;60.70
78297;DHT22;67555;47.660;19.622;2023-12-28T13:57:27;11.50;60.70
78297;DHT22;67555;47.660;19.622;2023-12-28T13:59:53;11.50;60.80
78297;DHT22;67555;47.660;19.622;2023-12-28T14:02:19;11.40;60.80
78297;DHT22;67555;47.660;19.622;2023-12-28T14:04:47;11.30;61.00
78297;DHT22;67555;47.660;19.622;2023-12-28T14:07:13;11.20;61.10
78297;DHT22;67555;47.660;19.622;2023-12-28T14:09:38;11.10;61.20
78297;DHT22;67555;47.660;19.622;2023-12-28T14:12:05;11.10;61.30
78297;DHT22;67555;47.660;19.622;2023-12-28T14:14:30;11.00;61.50
78297;DHT22;67555;47.660;19.622;2023-12-28T14:16:56;10.90;61.70
78297;DHT22;67555;47.660;19.622;2023-12-28T14:19:22;10.80;61.90
78297;DHT22;67555;47.660;19.622;2023-12-28T14:21:48;10.70;62.10
78297;DHT22;67555;47.660;19.622;2023-12-28T14:24:14;10.60;62.30
78297;DHT22;67555;47.660;19.622;2023-12-28T14:26:41;10.50;62.50
78297;DHT22;67555;47.660;19.622;2023-12-28T14:29:10;10.30;62.80
78297;DHT22;67555;47.660;19.622;2023-12-28T14:31:36;10.20;63.00
78297;DHT22;67555;47.660;19.622;2023-12-28T14:34:03;10.10;63.20
78297;DHT22;67555;47.660;19.622;2023-12-28T14:36:36;10.00;63.50
78297;DHT22;67555;47.660;19.622;2023-12-28T14:39:04;9.80;63.90
78297;DHT22;67555;47.660;19.622;2023-12-28T14:41:31;9.60;64.10
78297;DHT22;67555;47.660;19.622;2023-12-28T14:43:57;9.50;64.30
78297;DHT22;67555;47.660;19.622;2023-12-28T14:46:24;9.40;64.60
78297;DHT22;67555;47.660;19.622;2023-12-28T14:48:51;9.20;64.90
78297;DHT22;67555;47.660;19.622;2023-12-28T14:51:17;9.10;65.20
78297;DHT22;67555;47.660;19.622;2023-12-28T14:53:43;9.00;65.40
78297;DHT22;67555;47.660;19.622;2023-12-28T14:56:09;8.90;65.60
78297;DHT22;67555;47.660;19.622;2023-12-28T14:58:38;8.80;65.70
78297;DHT22;67555;47.660;19.622;2023-12-28T15:01:05;8.60;65.90
78297;DHT22;67555;47.660;19.622;2023-12-28T15:03:34;8.60;66.10
78297;DHT22;67555;47.660;19.622;2023-12-28T15:06:00;8.40;66.40
78297;DHT22;67555;47.660;19.622;2023-12-28T15:08:26;8.30;66.60
78297;DHT22;67555;47.660;19.622;2023-12-28T15:10:52;8.20;66.70
78297;DHT22;67555;47.660;19.622;2023-12-28T15:13:18;8.10;66.90
78297;DHT22;67555;47.660;19.622;2023-12-28T15:15:44;8.00;67.10
78297;DHT22;67555;47.660;19.622;2023-12-28T15:18:12;8.00;67.10
78297;DHT22;67555;47.660;19.622;2023-12-28T15:20:38;7.80;67.30
78297;DHT22;67555;47.660;19.622;2023-12-28T15:23:04;7.80;67.50
78297;DHT22;67555;47.660;19.622;2023-12-28T15:25:33;7.60;67.80
78297;DHT22;67555;47.660;19.622;2023-12-28T15:27:59;7.50;68.00
78297;DHT22;67555;47.660;19.622;2023-12-28T15:30:25;7.50;68.20
78297;DHT22;67555;47.660;19.622;2023-12-28T15:32:50;7.40;68.40
78297;DHT22;67555;47.660;19.622;2023-12-28T15:35:16;7.30;68.60
78297;DHT22;67555;47.660;19.622;2023-12-28T15:37:42;7.30;68.60